Time;durP1;ratioP1;P1;durP2;ratioP2;P2;SDS_P1;SDS_P2;PMS_P1;PMS_P2;Temp;Humidity;BMP_temperature;BMP_pressure;BME280_temperature;BME280_humidity;BME280_pressure;Samples;Min_cycle;Max_cycle;Signal;HPM_P1;HPM_P2
2022/05/23 00:00:00;;;;;;;4.53;2.30;;;15.10;66.00;;;;;;2360678;57;21065;-75
2022/05/23 00:02:27;;;;;;;2.80;2.00;;;15.10;65.90;;;;;;2358840;57;21140;-75
2022/05/23 00:04:55;;;;;;;3.87;1.87;;;15.10;66.00;;;;;;2360827;57;21104;-75
2022/05/23 00:07:26;;;;;;;6.18;2.28;;;15.10;65.90;;;;;;2360854;57;21044;-75
2022/05/23 00:09:54;;;;;;;6.25;2.55;;;15.10;65.70;;;;;;2361323;57;21061;-75
2022/05/23 00:12:22;;;;;;;4.75;2.40;;;15.10;65.60;;;;;;2360782;57;21041;-75
2022/05/23 00:14:50;;;;;;;7.25;2.22;;;15.10;65.70;;;;;;2360462;57;21084;-75
2022/05/23 00:17:19;;;;;;;3.47;2.10;;;15.00;65.50;;;;;;2361046;57;21152;-75
2022/05/23 00:19:47;;;;;;;4.00;2.25;;;15.00;65.40;;;;;;2361338;57;21029;-74
2022/05/23 00:22:16;;;;;;;5.45;2.30;;;15.00;65.40;;;;;;2361625;57;21045;-75
2022/05/23 00:24:45;;;;;;;3.95;2.30;;;15.00;65.40;;;;;;2361335;57;21105;-75
2022/05/23 00:27:14;;;;;;;6.25;2.90;;;14.90;65.40;;;;;;2360358;56;21139;-74
2022/05/23 00:29:41;;;;;;;2.67;2.05;;;14.90;65.50;;;;;;2360159;57;21052;-75
2022/05/23 00:37:41;;;;;;;5.10;2.10;;;14.90;65.70;;;;;;2361129;57;21021;-77
2022/05/23 00:40:20;;;;;;;3.20;2.05;;;14.80;65.70;;;;;;2361225;57;21046;-74
2022/05/23 00:45:36;;;;;;;3.65;2.33;;;14.80;66.20;;;;;;2589831;53;21040;-75
2022/05/23 00:48:03;;;;;;;2.78;1.83;;;14.80;66.30;;;;;;2359005;57;21036;-74
2022/05/23 00:50:33;;;;;;;5.80;2.33;;;14.70;66.00;;;;;;2359857;57;21060;-74
2022/05/23 00:53:01;;;;;;;4.70;2.30;;;14.70;66.70;;;;;;2360523;57;21033;-74
2022/05/23 00:55:37;;;;;;;3.75;2.17;;;14.70;65.90;;;;;;2359506;57;21049;-75
2022/05/23 00:58:07;;;;;;;3.75;2.08;;;14.70;65.80;;;;;;2359892;57;21049;-74
2022/05/23 01:00:35;;;;;;;2.85;2.00;;;14.70;65.70;;;;;;2360544;57;21045;-75
2022/05/23 01:03:06;;;;;;;5.87;2.37;;;14.70;65.80;;;;;;2359970;57;21041;-75
2022/05/23 01:05:35;;;;;;;3.47;2.15;;;14.60;66.60;;;;;;2359283;57;21642;-74
2022/05/23 01:08:03;;;;;;;8.40;2.20;;;14.60;65.90;;;;;;2359656;57;21116;-75
2022/05/23 01:10:33;;;;;;;3.70;2.10;;;14.60;66.00;;;;;;2360875;57;21056;-75
2022/05/23 01:13:01;;;;;;;2.30;1.92;;;14.60;66.00;;;;;;2359839;57;21539;-75
2022/05/23 01:15:31;;;;;;;4.00;2.20;;;14.60;66.20;;;;;;2359840;57;21159;-75
2022/05/23 01:17:58;;;;;;;4.60;2.40;;;14.50;66.80;;;;;;2360725;57;21053;-75
2022/05/23 01:20:26;;;;;;;4.07;2.15;;;14.50;65.90;;;;;;2360221;57;21698;-75
2022/05/23 01:23:05;;;;;;;4.72;2.17;;;14.50;66.80;;;;;;2360388;57;21172;-75
2022/05/23 01:25:33;;;;;;;3.05;2.10;;;14.50;65.90;;;;;;2358021;57;21183;-75
2022/05/23 01:28:01;;;;;;;3.42;2.05;;;14.50;65.80;;;;;;2359780;57;21160;-74
2022/05/23 01:30:29;;;;;;;6.93;2.30;;;14.50;65.80;;;;;;2359736;57;21037;-75
2022/05/23 01:32:57;;;;;;;5.12;2.40;;;14.50;66.10;;;;;;2359773;57;21061;-75
2022/05/23 01:35:24;;;;;;;2.80;1.90;;;14.40;66.20;;;;;;2359964;57;21109;-75
2022/05/23 01:37:51;;;;;;;4.93;1.98;;;14.40;66.50;;;;;;2359367;57;21104;-75
2022/05/23 01:40:19;;;;;;;5.85;2.65;;;14.40;66.70;;;;;;2360622;57;21135;-75
2022/05/23 01:42:47;;;;;;;5.18;2.60;;;14.40;67.00;;;;;;2358126;57;21119;-75
2022/05/23 01:45:18;;;;;;;5.50;2.45;;;14.40;67.20;;;;;;2359603;57;21021;-75
2022/05/23 01:47:46;;;;;;;5.40;2.22;;;14.30;67.30;;;;;;2360337;57;21048;-75
2022/05/23 01:50:13;;;;;;;2.92;1.87;;;14.40;67.40;;;;;;2360561;57;21049;-74
2022/05/23 01:52:41;;;;;;;5.05;2.05;;;14.40;67.60;;;;;;2360150;57;21041;-74
2022/05/23 01:55:09;;;;;;;6.78;2.40;;;14.40;68.00;;;;;;2359956;57;21060;-75
2022/05/23 01:57:37;;;;;;;4.00;2.03;;;14.40;68.00;;;;;;2359561;57;21045;-75
2022/05/23 02:02:53;;;;;;;4.35;2.35;;;14.40;68.30;;;;;;2359724;57;21084;-77
2022/05/23 02:05:21;;;;;;;6.25;2.00;;;14.40;68.40;;;;;;2359918;57;21049;-77
2022/05/23 02:07:48;;;;;;;4.03;2.12;;;14.40;68.60;;;;;;2360395;57;21053;-75
2022/05/23 02:10:16;;;;;;;5.50;2.40;;;14.40;68.70;;;;;;2360059;57;21061;-75
2022/05/23 02:12:43;;;;;;;8.35;2.37;;;14.40;69.30;;;;;;2358795;57;21192;-75
2022/05/23 02:15:10;;;;;;;5.75;2.35;;;14.40;68.70;;;;;;2357780;57;21053;-75
2022/05/23 02:17:38;;;;;;;3.20;2.25;;;14.40;68.90;;;;;;2359357;57;21088;-75
2022/05/23 02:20:08;;;;;;;6.18;2.70;;;14.40;68.90;;;;;;2360235;57;21108;-75
2022/05/23 02:22:36;;;;;;;7.53;2.85;;;14.40;69.00;;;;;;2359803;57;21108;-75
2022/05/23 02:25:05;;;;;;;3.97;2.33;;;14.40;69.00;;;;;;2360340;57;21139;-75
2022/05/23 02:27:32;;;;;;;4.93;2.28;;;14.40;69.10;;;;;;2358973;57;21104;-75
2022/05/23 02:29:59;;;;;;;6.22;2.78;;;14.40;69.10;;;;;;2359774;57;21092;-75
2022/05/23 02:32:27;;;;;;;3.90;2.35;;;14.40;69.70;;;;;;2360170;57;21096;-75
2022/05/23 02:34:54;;;;;;;4.97;2.40;;;14.40;69.00;;;;;;2609173;53;21425;-75
2022/05/23 02:37:21;;;;;;;5.05;2.50;;;14.40;68.80;;;;;;2359178;57;21658;-75
2022/05/23 02:39:48;;;;;;;5.47;2.60;;;14.40;68.70;;;;;;2359730;57;21121;-75
2022/05/23 02:42:16;;;;;;;10.43;3.10;;;14.50;68.80;;;;;;2360258;57;21216;-74
2022/05/23 02:44:44;;;;;;;4.15;2.40;;;14.50;68.80;;;;;;2360147;57;21108;-75
2022/05/23 02:47:12;;;;;;;4.65;2.30;;;14.50;68.60;;;;;;2358691;57;21029;-75
2022/05/23 02:49:40;;;;;;;4.85;2.10;;;14.50;68.40;;;;;;2359459;57;21045;-75
2022/05/23 02:52:08;;;;;;;3.87;2.70;;;14.50;68.50;;;;;;2359831;57;21029;-74
2022/05/23 02:54:35;;;;;;;3.58;2.20;;;14.50;68.50;;;;;;2360388;57;21029;-75
2022/05/23 02:57:02;;;;;;;3.10;2.37;;;14.50;68.40;;;;;;2360056;57;21567;-75
2022/05/23 02:59:30;;;;;;;3.70;2.50;;;14.40;68.40;;;;;;2359882;57;21053;-75
2022/05/23 03:04:43;;;;;;;9.05;2.85;;;14.40;68.40;;;;;;2360266;57;20997;-77
2022/05/23 03:07:11;;;;;;;5.35;2.67;;;14.40;68.30;;;;;;2359542;57;21041;-77
2022/05/23 03:09:38;;;;;;;6.03;2.55;;;14.40;68.20;;;;;;2358892;57;21049;-77
2022/05/23 03:12:08;;;;;;;3.83;2.58;;;14.40;68.20;;;;;;2358697;57;21044;-77
2022/05/23 03:14:35;;;;;;;5.90;2.53;;;14.40;68.00;;;;;;2358988;57;21602;-76
2022/05/23 03:17:04;;;;;;;4.45;2.42;;;14.40;68.00;;;;;;2358280;57;21128;-76
2022/05/23 03:19:34;;;;;;;2.70;2.22;;;14.30;67.90;;;;;;2356964;57;21029;-76
2022/05/23 03:27:33;;;;;;;3.05;2.42;;;14.30;68.10;;;;;;2359946;57;20997;-76
2022/05/23 03:30:00;;;;;;;4.62;2.45;;;14.30;68.10;;;;;;2360306;57;21105;-76
2022/05/23 03:32:27;;;;;;;3.15;2.42;;;14.30;68.20;;;;;;2359768;57;21343;-76
2022/05/23 03:34:54;;;;;;;8.57;3.10;;;14.30;68.40;;;;;;2358809;57;21045;-77
2022/05/23 03:37:21;;;;;;;2.37;1.90;;;14.30;68.30;;;;;;2358263;57;21498;-76
2022/05/23 03:39:49;;;;;;;2.83;2.12;;;14.30;69.10;;;;;;2359850;57;21116;-76
2022/05/23 03:42:16;;;;;;;6.32;2.50;;;14.40;68.50;;;;;;2360282;57;21020;-76
2022/05/23 03:44:43;;;;;;;3.37;2.20;;;14.40;68.40;;;;;;2359149;57;21049;-76
2022/05/23 03:49:39;;;;;;;4.78;2.70;;;14.40;68.00;;;;;;2495723;55;21062;-74
2022/05/23 03:52:07;;;;;;;5.70;2.30;;;14.40;68.10;;;;;;2264267;59;21086;-74
2022/05/23 03:54:34;;;;;;;4.62;2.45;;;14.40;67.60;;;;;;2265187;59;21416;-74
2022/05/23 03:57:03;;;;;;;3.60;1.90;;;14.50;67.40;;;;;;2265952;59;21046;-74
2022/05/23 03:59:31;;;;;;;3.08;1.92;;;14.50;67.20;;;;;;2265804;59;21058;-74
2022/05/23 04:01:59;;;;;;;3.42;1.85;;;14.50;67.40;;;;;;2265113;59;21161;-74
2022/05/23 04:04:28;;;;;;;3.72;2.10;;;14.50;67.20;;;;;;2494246;55;21069;-74
2022/05/23 04:07:00;;;;;;;2.35;1.98;;;14.50;66.60;;;;;;2264646;59;21133;-74
2022/05/23 04:09:27;;;;;;;3.08;1.62;;;14.60;66.80;;;;;;2263732;59;21148;-74
2022/05/23 04:11:55;;;;;;;5.03;2.15;;;14.60;67.20;;;;;;2262476;59;21069;-74
2022/05/23 04:14:22;;;;;;;4.37;2.22;;;14.70;67.00;;;;;;2266386;59;21089;-74
2022/05/23 04:16:50;;;;;;;4.72;2.37;;;14.70;66.70;;;;;;2265237;59;21129;-74
2022/05/23 04:19:17;;;;;;;4.87;2.80;;;14.70;67.00;;;;;;2265125;59;21070;-75
2022/05/23 04:21:46;;;;;;;2.03;1.77;;;14.70;65.60;;;;;;2265739;59;21085;-75
2022/05/23 04:24:15;;;;;;;5.32;1.90;;;14.80;65.40;;;;;;2494933;55;21073;-75
2022/05/23 04:26:43;;;;;;;4.37;1.85;;;14.80;65.20;;;;;;2264949;59;21102;-75
2022/05/23 04:29:11;;;;;;;3.20;1.98;;;14.80;65.40;;;;;;2264930;59;21197;-75
2022/05/23 04:31:38;;;;;;;4.05;2.12;;;14.90;65.50;;;;;;2265966;59;21074;-75
2022/05/23 04:36:51;;;;;;;4.75;2.30;;;14.90;65.10;;;;;;2264360;59;21073;-75
2022/05/23 04:39:18;;;;;;;5.05;2.05;;;15.00;65.40;;;;;;2265063;59;21077;-75
2022/05/23 04:41:46;;;;;;;3.47;1.90;;;15.00;65.00;;;;;;2265194;59;21157;-75
2022/05/23 04:44:13;;;;;;;5.93;2.35;;;15.10;64.90;;;;;;2495498;55;21117;-75
2022/05/23 04:49:41;;;;;;;3.83;1.90;;;15.10;64.80;;;;;;2264037;59;21143;-75
2022/05/23 04:52:09;;;;;;;2.65;1.80;;;15.20;65.00;;;;;;2265671;59;21338;-75
2022/05/23 04:54:37;;;;;;;1.77;1.45;;;15.30;64.40;;;;;;2496181;55;21081;-75
2022/05/23 04:57:06;;;;;;;3.45;2.00;;;15.30;64.90;;;;;;2265719;59;21076;-75
2022/05/23 04:59:34;;;;;;;3.22;1.80;;;15.30;64.60;;;;;;2266075;59;21077;-75
2022/05/23 05:02:02;;;;;;;1.75;1.65;;;15.30;64.20;;;;;;2264966;59;21081;-75
2022/05/23 05:04:30;;;;;;;6.22;2.47;;;15.30;64.40;;;;;;2495805;55;21191;-75
2022/05/23 05:06:58;;;;;;;4.28;1.98;;;15.30;64.50;;;;;;2265150;59;21141;-75
2022/05/23 05:09:26;;;;;;;2.65;1.87;;;15.30;64.10;;;;;;2265163;59;21061;-75
2022/05/23 05:11:53;;;;;;;3.92;1.85;;;15.30;63.90;;;;;;2265795;59;21636;-75
2022/05/23 05:14:20;;;;;;;6.57;2.35;;;15.30;63.90;;;;;;2266370;59;21073;-75
2022/05/23 05:16:47;;;;;;;3.85;1.92;;;15.30;63.60;;;;;;2265504;59;21129;-75
2022/05/23 05:19:15;;;;;;;6.57;2.03;;;15.30;63.60;;;;;;2496075;55;21608;-75
2022/05/23 05:21:42;;;;;;;6.15;1.80;;;15.30;63.90;;;;;;2264570;59;22212;-75
2022/05/23 05:24:09;;;;;;;4.68;1.90;;;15.20;63.50;;;;;;2264756;59;21148;-75
2022/05/23 05:26:37;;;;;;;4.30;1.98;;;15.20;63.70;;;;;;2266012;59;21086;-77
2022/05/23 05:29:04;;;;;;;4.37;2.20;;;15.20;63.50;;;;;;2266260;59;21137;-77
2022/05/23 05:31:37;;;;;;;5.15;2.03;;;15.20;63.50;;;;;;2266384;59;21130;-76
2022/05/23 05:36:48;;;;;;;4.55;1.92;;;15.20;63.80;;;;;;2355847;57;22046;-83
2022/05/23 05:39:20;;;;;;;3.50;2.10;;;15.20;64.10;;;;;;2375014;56;21071;-83
2022/05/23 05:41:53;;;;;;;3.65;1.92;;;15.20;64.40;;;;;;2377168;56;21113;-82
2022/05/23 05:44:25;;;;;;;3.92;2.00;;;15.30;64.30;;;;;;2631028;52;21090;-82
2022/05/23 05:46:56;;;;;;;2.47;1.67;;;15.30;64.40;;;;;;2630514;52;21078;-81
2022/05/23 05:49:27;;;;;;;3.17;1.70;;;15.30;64.40;;;;;;2630734;52;21117;-83
2022/05/23 05:51:59;;;;;;;6.78;1.62;;;15.30;64.30;;;;;;2630550;52;21047;-81
2022/05/23 05:54:29;;;;;;;3.37;1.85;;;15.30;64.30;;;;;;2630155;52;21046;-83
2022/05/23 05:56:59;;;;;;;3.83;1.60;;;15.30;64.30;;;;;;2630107;52;21121;-82
2022/05/23 05:59:27;;;;;;;6.82;2.25;;;15.40;64.60;;;;;;2377024;56;21141;-81
2022/05/23 06:01:54;;;;;;;4.68;2.00;;;15.40;64.20;;;;;;2630489;52;21027;-81
2022/05/23 06:04:21;;;;;;;3.47;1.85;;;15.40;64.40;;;;;;2630642;52;21563;-82
2022/05/23 06:12:19;;;;;;;4.72;1.80;;;15.50;65.10;;;;;;2377404;56;21027;-83
2022/05/23 06:14:46;;;;;;;4.97;1.75;;;15.50;64.70;;;;;;2630582;52;21039;-81
2022/05/23 06:17:14;;;;;;;4.53;1.75;;;15.60;64.20;;;;;;2376798;56;21035;-83
2022/05/23 06:19:44;;;;;;;3.70;1.58;;;15.60;63.50;;;;;;2630535;52;21035;-83
2022/05/23 06:22:12;;;;;;;3.47;1.50;;;15.60;63.80;;;;;;2630958;52;21110;-83
2022/05/23 06:24:40;;;;;;;4.82;2.05;;;15.70;64.70;;;;;;2628757;52;21047;-83
2022/05/23 06:27:08;;;;;;;5.03;1.80;;;15.70;64.00;;;;;;2376994;56;21093;-83
2022/05/23 06:29:38;;;;;;;3.12;1.83;;;15.70;63.70;;;;;;2630989;52;21023;-82
2022/05/23 06:32:07;;;;;;;4.20;1.65;;;15.80;63.80;;;;;;2630895;52;21102;-82
2022/05/23 06:34:34;;;;;;;3.17;1.45;;;15.80;63.90;;;;;;2630903;52;21106;-83
2022/05/23 06:37:03;;;;;;;4.28;1.73;;;15.90;64.90;;;;;;2376531;56;21050;-82
2022/05/23 06:39:30;;;;;;;4.40;2.10;;;15.90;63.80;;;;;;2375537;56;21103;-82
2022/05/23 06:41:57;;;;;;;3.58;1.80;;;16.00;63.50;;;;;;2629887;52;21075;-81
2022/05/23 06:44:24;;;;;;;2.97;1.85;;;16.00;63.40;;;;;;2630160;52;21075;-83
2022/05/23 06:46:52;;;;;;;4.85;1.98;;;16.00;63.20;;;;;;2629570;52;21055;-82
2022/05/23 06:49:19;;;;;;;2.60;1.37;;;16.00;63.20;;;;;;2629260;52;21067;-82
2022/05/23 06:51:49;;;;;;;3.92;1.87;;;16.10;63.10;;;;;;2628769;52;21574;-82
2022/05/23 06:54:17;;;;;;;2.30;1.52;;;16.20;62.60;;;;;;2629575;52;21063;-83
2022/05/23 06:56:45;;;;;;;6.07;1.92;;;16.20;62.70;;;;;;2628561;52;21055;-82
2022/05/23 06:59:13;;;;;;;4.18;1.95;;;16.30;62.60;;;;;;2628603;52;21039;-83
2022/05/23 07:01:40;;;;;;;2.78;1.58;;;16.30;62.60;;;;;;2629254;52;21127;-83
2022/05/23 07:04:08;;;;;;;3.42;1.60;;;16.40;62.80;;;;;;2628992;52;21559;-83
2022/05/23 07:12:23;;;;;;;3.65;1.60;;;16.50;63.00;;;;;;2376559;56;21558;-82
2022/05/23 07:14:51;;;;;;;2.80;1.62;;;16.60;62.80;;;;;;2628796;52;21055;-83
2022/05/23 07:17:19;;;;;;;1.58;1.23;;;16.60;63.00;;;;;;2629261;52;21043;-83
2022/05/23 07:19:46;;;;;;;2.85;1.45;;;16.70;63.00;;;;;;2375807;56;21082;-83
2022/05/23 07:22:13;;;;;;;4.68;1.62;;;16.70;62.00;;;;;;2629007;52;21626;-84
2022/05/23 07:27:16;;;;;;;4.90;1.80;;;16.80;61.80;;;;;;2330921;57;28151;-74
2022/05/23 07:29:43;;;;;;;4.85;1.48;;;17.00;62.40;;;;;;2347448;57;21057;-74
2022/05/23 07:32:12;;;;;;;3.75;1.48;;;17.10;61.50;;;;;;2347010;57;21531;-74
2022/05/23 07:34:40;;;;;;;4.43;1.80;;;17.20;61.00;;;;;;2347212;57;21192;-74
2022/05/23 07:37:08;;;;;;;7.30;1.62;;;17.30;60.40;;;;;;2346567;57;21058;-74
2022/05/23 07:39:37;;;;;;;2.08;1.48;;;17.30;60.90;;;;;;2347187;57;21153;-74
2022/05/23 07:42:05;;;;;;;2.62;1.58;;;17.40;61.30;;;;;;2346865;57;21061;-74
2022/05/23 07:44:33;;;;;;;3.20;1.40;;;17.50;60.50;;;;;;2346614;57;21128;-74
2022/05/23 07:47:00;;;;;;;2.28;1.17;;;17.50;59.50;;;;;;2345410;57;21058;-74
2022/05/23 07:49:28;;;;;;;3.47;1.70;;;17.60;59.60;;;;;;2347696;57;21100;-74
2022/05/23 07:51:56;;;;;;;4.15;1.65;;;17.60;58.50;;;;;;2347252;57;21033;-74
2022/05/23 08:02:41;;;;;;;3.70;1.50;;;17.90;57.90;;;;;;2347838;57;21070;-74
2022/05/23 08:05:09;;;;;;;3.67;1.50;;;18.00;58.00;;;;;;2347789;57;21030;-74
2022/05/23 08:07:37;;;;;;;3.25;1.60;;;18.10;58.40;;;;;;2347137;57;21064;-74
2022/05/23 08:10:06;;;;;;;4.90;1.62;;;18.10;57.80;;;;;;2347909;57;21054;-74
2022/05/23 08:12:35;;;;;;;5.00;1.50;;;18.20;57.30;;;;;;2347352;57;21037;-74
2022/05/23 08:15:04;;;;;;;4.68;1.67;;;18.20;57.40;;;;;;2345830;57;21030;-74
2022/05/23 08:17:31;;;;;;;3.47;1.60;;;18.30;56.90;;;;;;2347191;57;21109;-74
2022/05/23 08:19:58;;;;;;;3.85;1.55;;;18.30;57.20;;;;;;2347072;57;21038;-74
2022/05/23 08:22:28;;;;;;;2.65;1.60;;;18.40;57.20;;;;;;2347648;57;21117;-74
2022/05/23 08:24:55;;;;;;;4.93;1.95;;;18.50;56.80;;;;;;2347229;57;21064;-74
2022/05/23 08:27:22;;;;;;;4.32;1.85;;;18.50;56.80;;;;;;2347257;57;21105;-74
2022/05/23 08:29:52;;;;;;;3.60;1.40;;;18.60;56.00;;;;;;2347518;57;21049;-74
2022/05/23 08:32:20;;;;;;;2.20;1.40;;;18.60;55.60;;;;;;2347425;57;21053;-74
2022/05/23 08:34:48;;;;;;;3.12;1.50;;;18.70;55.80;;;;;;2347152;57;21113;-74
2022/05/23 08:37:16;;;;;;;3.75;1.20;;;18.70;55.60;;;;;;2345981;57;21532;-76
2022/05/23 08:39:43;;;;;;;3.78;1.77;;;18.80;56.10;;;;;;2345237;57;21129;-78
2022/05/23 08:42:24;;;;;;;10.48;1.40;;;18.90;56.10;;;;;;2342491;57;21065;-77
2022/05/23 08:45:02;;;;;;;4.25;1.35;;;18.90;54.80;;;;;;2345040;57;21046;-77
2022/05/23 08:47:33;;;;;;;3.25;1.42;;;19.00;54.60;;;;;;2345250;57;21049;-78
2022/05/23 08:50:11;;;;;;;2.08;1.40;;;19.00;54.20;;;;;;2345504;57;21042;-78
2022/05/23 08:52:44;;;;;;;3.87;1.50;;;19.00;54.40;;;;;;2346276;57;21145;-78
2022/05/23 08:55:18;;;;;;;3.35;1.50;;;19.10;54.50;;;;;;2346208;57;21126;-77
2022/05/23 08:57:52;;;;;;;3.65;1.83;;;19.10;55.00;;;;;;2593595;53;21109;-77
2022/05/23 09:00:23;;;;;;;2.22;1.35;;;19.20;55.50;;;;;;2346240;57;21046;-77
2022/05/23 09:02:55;;;;;;;4.82;1.62;;;19.20;54.40;;;;;;2346199;57;21059;-77
2022/05/23 09:05:29;;;;;;;4.07;1.80;;;19.20;54.00;;;;;;2591799;53;21117;-78
2022/05/23 09:07:59;;;;;;;4.85;1.60;;;19.20;54.20;;;;;;2345654;57;21116;-77
2022/05/23 09:10:34;;;;;;;5.82;1.58;;;19.30;53.70;;;;;;2593884;53;21045;-77
2022/05/23 09:13:01;;;;;;;5.28;1.83;;;19.30;53.30;;;;;;2592268;53;21049;-77
2022/05/23 09:15:31;;;;;;;4.22;1.60;;;19.30;54.20;;;;;;2345838;57;21097;-77
2022/05/23 09:18:03;;;;;;;2.62;1.55;;;19.30;54.40;;;;;;2345830;57;21439;-77
2022/05/23 09:20:38;;;;;;;3.83;2.00;;;19.40;54.40;;;;;;2345674;57;21228;-77
2022/05/23 09:23:10;;;;;;;3.03;1.30;;;19.40;54.00;;;;;;2346704;57;21121;-77
2022/05/23 09:25:38;;;;;;;4.03;1.62;;;19.40;53.90;;;;;;2592890;53;21101;-77
2022/05/23 09:28:18;;;;;;;3.00;1.85;;;19.50;53.50;;;;;;2346143;57;21054;-77
2022/05/23 09:30:53;;;;;;;2.78;1.52;;;19.50;53.50;;;;;;2346082;57;21105;-77
2022/05/23 09:33:22;;;;;;;4.15;1.77;;;19.50;53.60;;;;;;2346487;57;21185;-77
2022/05/23 09:35:53;;;;;;;4.18;1.48;;;19.60;53.80;;;;;;2345695;57;21109;-77
2022/05/23 09:38:23;;;;;;;4.05;1.95;;;19.60;54.30;;;;;;2346606;57;21097;-78
2022/05/23 09:40:52;;;;;;;4.20;1.98;;;19.70;53.80;;;;;;2346286;57;21047;-76
2022/05/23 09:49:09;;;;;;;3.17;1.50;;;19.90;54.90;;;;;;2485904;52;68416;-76
2022/05/23 09:51:51;;;;;;;3.72;1.92;;;19.90;54.60;;;;;;2359353;57;21112;-80
2022/05/23 09:54:22;;;;;;;3.97;2.00;;;19.90;55.00;;;;;;2359984;57;21080;-81
2022/05/23 09:56:50;;;;;;;4.85;2.50;;;20.00;54.40;;;;;;2609498;53;21044;-81
2022/05/23 09:59:26;;;;;;;2.55;1.50;;;20.00;53.50;;;;;;2363378;57;21060;-82
2022/05/23 10:01:54;;;;;;;3.35;1.60;;;20.10;54.10;;;;;;2364634;57;21518;-82
2022/05/23 10:04:27;;;;;;;5.28;2.28;;;20.10;53.10;;;;;;2364532;57;21025;-82
2022/05/23 10:06:54;;;;;;;4.12;1.77;;;20.10;53.70;;;;;;2364021;57;21104;-81
2022/05/23 10:09:31;;;;;;;3.65;1.90;;;20.20;53.60;;;;;;2365124;57;21026;-82
2022/05/23 10:12:04;;;;;;;3.78;1.65;;;20.20;53.00;;;;;;2615667;53;21089;-82
2022/05/23 10:14:45;;;;;;;2.28;1.67;;;20.20;52.90;;;;;;2616096;53;21574;-81
2022/05/23 10:17:29;;;;;;;5.28;2.00;;;20.30;53.40;;;;;;2364798;57;21072;-81
2022/05/23 10:20:21;;;;;;;2.70;1.90;;;20.30;53.20;;;;;;2364446;56;21046;-81
2022/05/23 10:22:56;;;;;;;6.25;1.60;;;20.40;52.10;;;;;;2615074;53;21089;-81
2022/05/23 10:25:26;;;;;;;5.85;1.70;;;20.40;52.40;;;;;;2615211;53;21033;-80
2022/05/23 10:27:57;;;;;;;6.25;2.12;;;20.50;52.50;;;;;;2615905;53;21549;-82
2022/05/23 10:30:28;;;;;;;4.50;1.85;;;20.50;53.10;;;;;;2364829;57;21040;-81
2022/05/23 10:33:01;;;;;;;4.78;2.20;;;20.60;51.80;;;;;;2615744;53;21636;-81
2022/05/23 10:35:35;;;;;;;4.57;1.92;;;20.60;51.10;;;;;;2615232;53;21021;-81
2022/05/23 10:43:53;;;;;;;4.22;2.10;;;20.80;51.20;;;;;;2365052;57;21056;-81
2022/05/23 10:46:20;;;;;;;2.70;1.50;;;20.80;51.00;;;;;;2616105;53;21045;-83
2022/05/23 10:48:56;;;;;;;5.10;1.75;;;20.90;51.80;;;;;;2373906;56;21129;-80
2022/05/23 10:51:33;;;;;;;3.67;1.70;;;21.00;51.60;;;;;;2398598;56;21605;-81
2022/05/23 10:54:32;;;;;;;3.85;2.22;;;21.10;50.90;;;;;;2398565;56;21063;-83
2022/05/23 10:59:53;;;;;;;4.25;1.75;;;21.20;50.00;;;;;;2355995;57;22074;-77
2022/05/23 11:02:31;;;;;;;3.15;1.73;;;21.40;50.60;;;;;;2347159;57;21073;-77
2022/05/23 11:05:08;;;;;;;6.50;1.80;;;21.50;50.20;;;;;;2347617;57;21052;-78
2022/05/23 11:07:44;;;;;;;4.35;1.80;;;21.70;49.10;;;;;;2355673;56;21134;-77
2022/05/23 11:10:20;;;;;;;4.75;1.67;;;21.80;48.00;;;;;;2375244;56;21065;-77
2022/05/23 11:12:56;;;;;;;2.22;1.60;;;21.90;48.50;;;;;;2375386;56;21043;-77
2022/05/23 11:15:35;;;;;;;5.10;1.62;;;22.00;47.50;;;;;;2374729;56;21043;-78
2022/05/23 11:18:09;;;;;;;4.07;1.80;;;22.00;47.20;;;;;;2375115;56;21059;-77
2022/05/23 11:20:38;;;;;;;5.25;1.85;;;22.10;47.40;;;;;;2375723;56;21043;-77
2022/05/23 11:23:12;;;;;;;4.97;1.80;;;22.30;47.10;;;;;;2375816;56;21051;-77
2022/05/23 11:25:44;;;;;;;4.85;1.60;;;22.30;46.70;;;;;;2375049;56;21098;-78
2022/05/23 11:33:59;;;;;;;4.62;1.50;;;22.60;47.20;;;;;;2375577;56;21070;-76
2022/05/23 11:36:44;;;;;;;5.83;1.70;;;22.70;46.60;;;;;;2375946;56;21066;-79
2022/05/23 11:39:46;;;;;;;2.30;1.40;;;22.80;46.60;;;;;;2375827;56;21054;-77
2022/05/23 11:42:16;;;;;;;4.65;1.95;;;23.00;46.30;;;;;;2376239;56;21150;-77
2022/05/23 11:48:27;;;;;;;3.65;1.80;;;23.20;45.10;;;;;;2375448;56;21035;-78
2022/05/23 11:50:57;;;;;;;3.13;1.60;;;23.20;44.30;;;;;;2375851;56;21134;-78
2022/05/23 11:53:29;;;;;;;3.28;1.48;;;23.30;44.50;;;;;;2629445;52;21027;-78
2022/05/23 11:56:06;;;;;;;6.12;1.92;;;23.30;44.50;;;;;;2374810;56;21035;-78
2022/05/23 12:01:36;;;;;;;4.07;1.50;;;23.50;44.70;;;;;;2356245;57;22627;-79
2022/05/23 12:04:18;;;;;;;6.25;1.58;;;23.60;44.40;;;;;;2348499;57;21065;-79
2022/05/23 12:06:46;;;;;;;3.12;1.58;;;23.70;43.80;;;;;;2595875;52;21049;-79
2022/05/23 12:09:36;;;;;;;3.72;1.40;;;23.70;43.70;;;;;;2376109;56;21067;-79
2022/05/23 12:12:45;;;;;;;2.90;1.48;;;23.90;44.50;;;;;;2374510;56;21393;-78
2022/05/23 12:15:47;;;;;;;3.70;1.58;;;23.90;42.70;;;;;;2375207;56;21105;-79
2022/05/23 12:18:32;;;;;;;2.15;1.75;;;23.90;42.50;;;;;;2376101;56;21533;-79
2022/05/23 12:21:02;;;;;;;4.45;1.55;;;24.00;43.10;;;;;;2629880;52;21114;-79
2022/05/23 12:23:36;;;;;;;2.75;1.70;;;24.10;42.10;;;;;;2376053;56;21127;-79
2022/05/23 12:26:26;;;;;;;2.58;1.40;;;24.10;42.10;;;;;;2374992;56;21031;-79
2022/05/23 12:28:57;;;;;;;3.47;2.10;;;24.20;41.50;;;;;;2375332;56;21114;-78
2022/05/23 12:31:27;;;;;;;4.90;1.95;;;24.20;41.80;;;;;;2375753;56;21087;-79
2022/05/23 12:34:09;;;;;;;4.18;1.27;;;24.20;41.30;;;;;;2376121;56;21055;-79
2022/05/23 12:36:40;;;;;;;11.73;2.10;;;24.20;41.20;;;;;;2375536;56;21129;-80
2022/05/23 12:39:54;;;;;;;4.05;1.67;;;24.30;41.60;;;;;;2375503;56;21059;-79
2022/05/23 12:46:08;;;;;;;3.15;1.90;;;24.40;41.40;;;;;;2603705;53;22547;-77
2022/05/23 12:48:50;;;;;;;4.10;1.73;;;24.40;41.70;;;;;;2366283;56;21394;-77
2022/05/23 12:55:06;;;;;;;4.15;1.60;;;24.50;41.80;;;;;;2374254;56;21006;-78
2022/05/23 12:58:18;;;;;;;3.30;1.73;;;24.50;41.20;;;;;;2374773;56;21063;-79
2022/05/23 13:00:52;;;;;;;6.70;1.80;;;24.50;41.20;;;;;;2628442;52;21532;-78
2022/05/23 13:03:28;;;;;;;3.67;1.50;;;24.60;40.70;;;;;;2374679;56;21039;-78
2022/05/23 13:06:01;;;;;;;5.55;1.58;;;24.60;41.40;;;;;;2374460;56;21050;-77
2022/05/23 13:08:34;;;;;;;3.58;2.08;;;24.70;41.10;;;;;;2374711;56;21050;-78
2022/05/23 13:11:08;;;;;;;3.40;1.52;;;24.80;40.80;;;;;;2375210;56;21047;-76
2022/05/23 13:13:38;;;;;;;4.15;1.48;;;24.80;41.00;;;;;;2375355;56;21054;-79
2022/05/23 13:16:24;;;;;;;4.50;1.60;;;24.80;41.10;;;;;;2374955;56;21051;-79
2022/05/23 13:27:14;;;;;;;6.20;1.77;;;24.90;40.50;;;;;;2375346;56;21342;-78
2022/05/23 13:29:42;;;;;;;3.03;1.90;;;24.90;40.40;;;;;;2374963;56;21038;-81
2022/05/23 13:32:12;;;;;;;6.32;1.45;;;25.00;40.90;;;;;;2374477;56;21039;-77
2022/05/23 13:34:43;;;;;;;3.33;1.62;;;25.00;40.80;;;;;;2375775;56;21103;-77
2022/05/23 13:37:23;;;;;;;2.85;1.33;;;25.00;41.00;;;;;;2374239;56;21169;-77
2022/05/23 13:39:50;;;;;;;2.72;1.52;;;25.00;41.00;;;;;;2374841;56;21548;-79
2022/05/23 13:42:22;;;;;;;3.20;1.55;;;25.00;41.00;;;;;;2628996;52;21035;-78
2022/05/23 13:44:50;;;;;;;2.53;1.70;;;25.00;41.40;;;;;;2628617;52;21151;-80
2022/05/23 13:47:21;;;;;;;3.67;1.92;;;25.20;41.70;;;;;;2375220;56;21054;-77
2022/05/23 13:49:52;;;;;;;8.45;1.83;;;25.20;41.60;;;;;;2375688;56;21739;-78
2022/05/23 13:52:24;;;;;;;5.93;2.00;;;25.30;41.30;;;;;;2374419;56;21103;-76
2022/05/23 13:54:54;;;;;;;3.78;1.80;;;25.30;39.90;;;;;;2374966;56;21593;-79
2022/05/23 13:57:26;;;;;;;7.97;1.92;;;25.30;39.10;;;;;;2374142;56;21057;-78
2022/05/23 14:02:34;;;;;;;3.23;2.00;;;25.20;40.00;;;;;;2310012;57;30837;-78
2022/05/23 14:05:04;;;;;;;5.10;1.87;;;25.40;39.40;;;;;;2347235;57;21081;-78
2022/05/23 14:07:36;;;;;;;3.85;1.70;;;25.40;40.10;;;;;;2347100;57;21053;-78
2022/05/23 14:10:06;;;;;;;3.67;1.83;;;25.50;40.00;;;;;;2345244;57;21958;-76
2022/05/23 14:12:34;;;;;;;5.15;1.98;;;25.60;40.30;;;;;;2346159;57;21061;-77
2022/05/23 14:15:10;;;;;;;3.47;1.33;;;25.60;40.80;;;;;;2346291;57;21616;-80
2022/05/23 14:17:40;;;;;;;3.30;2.00;;;25.70;41.80;;;;;;2345672;57;21125;-76
2022/05/23 14:20:22;;;;;;;6.30;2.12;;;25.80;40.40;;;;;;2346434;57;21188;-77
2022/05/23 14:23:19;;;;;;;3.03;1.40;;;25.80;39.50;;;;;;2345708;57;21624;-78
2022/05/23 14:25:48;;;;;;;3.33;1.60;;;25.90;40.50;;;;;;2345902;57;21109;-78
2022/05/23 14:28:20;;;;;;;3.83;1.80;;;25.90;40.60;;;;;;2346604;57;21125;-79
2022/05/23 14:30:50;;;;;;;4.57;1.83;;;25.90;40.60;;;;;;2346349;57;21101;-79
2022/05/23 14:36:00;;;;;;;3.70;1.52;;;25.90;39.80;;;;;;2536062;53;22618;-78
2022/05/23 14:38:34;;;;;;;6.00;1.52;;;25.90;39.20;;;;;;2549207;54;21093;-79
2022/05/23 14:41:14;;;;;;;3.85;1.80;;;25.90;39.00;;;;;;2318356;58;21052;-80
2022/05/23 14:43:41;;;;;;;3.03;1.85;;;25.80;38.90;;;;;;2318224;58;21546;-78